createdAt,value
2018-07-26T00:00:30.064Z,24.4
2018-07-26T00:01:19.863Z,24.4
2018-07-26T00:02:10.230Z,24.4
2018-07-26T00:03:00.039Z,24.4
2018-07-26T00:03:49.905Z,24.4
2018-07-26T00:04:39.841Z,24.4
2018-07-26T00:05:30.498Z,24.4
2018-07-26T00:06:19.961Z,24.4
2018-07-26T00:07:10.319Z,24.4
2018-07-26T00:07:59.930Z,24.4
2018-07-26T00:08:50.258Z,24.4
2018-07-26T00:09:40.352Z,24.4
2018-07-26T00:10:30.127Z,24.4
2018-07-26T00:11:20.966Z,24.4
2018-07-26T00:12:09.969Z,24.4
2018-07-26T00:12:59.452Z,24.4
2018-07-26T00:13:50.830Z,24.4
2018-07-26T00:14:41.175Z,24.4
2018-07-26T00:15:30.998Z,24.4
2018-07-26T00:16:21.298Z,24.4
2018-07-26T00:17:11.093Z,24.4
2018-07-26T00:18:01.162Z,24.4
2018-07-26T00:18:51.243Z,24.4
2018-07-26T00:19:40.804Z,24.4
2018-07-26T00:20:30.614Z,24.4
2018-07-26T00:21:20.374Z,24.4
2018-07-26T00:22:11.251Z,24.4
2018-07-26T00:23:01.064Z,24.4
2018-07-26T00:23:50.831Z,24.4
2018-07-26T00:24:41.687Z,24.4
2018-07-26T00:25:31.712Z,24.4
2018-07-26T00:26:22.108Z,24.4
2018-07-26T00:27:11.612Z,24.4
2018-07-26T00:28:01.368Z,24.4
2018-07-26T00:28:51.701Z,24.4
2018-07-26T00:29:42.047Z,24.4
2018-07-26T00:30:32.414Z,24.4
2018-07-26T00:31:21.923Z,24.4
2018-07-26T00:32:12.574Z,24.4
2018-07-26T00:33:02.029Z,24.4
2018-07-26T00:33:52.106Z,24.4
2018-07-26T00:34:42.723Z,24.4
2018-07-26T00:35:32.473Z,24.4
2018-07-26T00:36:22.820Z,24.4
2018-07-26T00:37:12.636Z,24.4
2018-07-26T00:38:02.988Z,24.4
2018-07-26T00:38:52.778Z,24.4
2018-07-26T00:39:42.820Z,24.4
2018-07-26T00:40:33.160Z,24.4
2018-07-26T00:41:23.328Z,24.4
2018-07-26T00:42:13.047Z,24.4
2018-07-26T00:43:02.538Z,24.4
2018-07-26T00:43:53.410Z,24.4
2018-07-26T00:44:42.666Z,24.4
2018-07-26T00:45:33.558Z,24.4
2018-07-26T00:46:23.360Z,24.4
2018-07-26T00:47:13.397Z,24.4
2018-07-26T00:48:03.494Z,24.4
2018-07-26T00:48:54.558Z,24.4
2018-07-26T00:49:43.337Z,24.4
2018-07-26T00:50:33.953Z,24.4
2018-07-26T00:51:23.737Z,24.4
2018-07-26T00:52:14.070Z,24.4
2018-07-26T00:53:03.858Z,24.4
2018-07-26T00:53:53.636Z,24.4
2018-07-26T00:54:43.985Z,24.4
2018-07-26T00:55:34.010Z,24.4
2018-07-26T00:56:24.369Z,24.4
2018-07-26T00:57:13.892Z,24.4
2018-07-26T00:58:04.487Z,24.4
2018-07-26T00:58:54.568Z,24.4
2018-07-26T00:59:44.366Z,24.4
2018-07-26T01:00:34.725Z,24.4
2018-07-26T01:01:24.212Z,24.4
2018-07-26T01:02:14.301Z,24.4
2018-07-26T01:03:04.874Z,24.3
2018-07-26T01:03:54.137Z,24.4
2018-07-26T01:04:45.010Z,24.3
2018-07-26T01:05:34.554Z,24.4
2018-07-26T01:06:25.154Z,24.4
2018-07-26T01:07:15.192Z,24.3
2018-07-26T01:08:05.307Z,24.4
2018-07-26T01:08:54.492Z,24.3
2018-07-26T01:09:45.359Z,24.4
2018-07-26T01:10:35.200Z,24.4
2018-07-26T01:11:25.333Z,24.3
2018-07-26T01:12:15.612Z,24.4
2018-07-26T01:13:05.160Z,24.4
2018-07-26T01:13:55.506Z,24.4
2018-07-26T01:14:45.809Z,24.4
2018-07-26T01:15:35.322Z,24.4
2018-07-26T01:16:24.788Z,24.3
2018-07-26T01:17:16.002Z,24.3
2018-07-26T01:18:05.223Z,24.4
2018-07-26T01:18:55.829Z,24.4
2018-07-26T01:19:46.169Z,24.3
2018-07-26T01:20:36.271Z,24.4
2018-07-26T01:21:26.045Z,24.3
2018-07-26T01:22:16.073Z,24.3
2018-07-26T01:23:06.439Z,24.4
2018-07-26T01:23:56.544Z,24.3
2018-07-26T01:24:46.339Z,24.3
2018-07-26T01:25:36.617Z,24.3
2018-07-26T01:26:26.135Z,24.3
2018-07-26T01:27:16.827Z,24.3
2018-07-26T01:28:06.246Z,24.4
2018-07-26T01:28:56.325Z,24.4
2018-07-26T01:29:46.461Z,24.4
2018-07-26T01:30:36.533Z,24.4
2018-07-26T01:31:26.777Z,24.3
2018-07-26T01:32:16.096Z,24.3
2018-07-26T01:33:06.170Z,24.3
2018-07-26T01:33:56.543Z,24.3
2018-07-26T01:34:46.822Z,24.4
2018-07-26T01:35:36.924Z,24.3
2018-07-26T01:36:26.421Z,24.3
2018-07-26T01:37:17.516Z,24.3
2018-07-26T01:38:07.565Z,24.3
2018-07-26T01:38:57.351Z,24.4
2018-07-26T01:39:46.889Z,24.3
2018-07-26T01:40:37.203Z,24.4
2018-07-26T01:41:27.018Z,24.3
2018-07-26T01:42:17.233Z,24.3
2018-07-26T01:43:07.196Z,24.4
2018-07-26T01:43:57.277Z,24.3
2018-07-26T01:44:47.663Z,24.3
2018-07-26T01:45:37.696Z,24.4
2018-07-26T01:46:27.727Z,24.3
2018-07-26T01:47:17.798Z,24.3
2018-07-26T01:48:08.122Z,24.3
2018-07-26T01:48:58.471Z,24.3
2018-07-26T01:49:48.199Z,24.3
2018-07-26T01:50:38.052Z,24.4
2018-07-26T01:51:28.621Z,24.4
2018-07-26T01:52:18.363Z,24.3
2018-07-26T01:53:08.774Z,24.3
2018-07-26T01:53:58.534Z,24.4
2018-07-26T01:54:48.346Z,24.3
2018-07-26T01:55:38.911Z,24.3
2018-07-26T01:56:29.000Z,24.4
2018-07-26T01:57:18.750Z,24.3
2018-07-26T01:58:08.840Z,24.3
2018-07-26T01:58:58.925Z,24.3
2018-07-26T01:59:49.215Z,24.3
2018-07-26T02:00:39.285Z,24.4
2018-07-26T02:01:29.362Z,24.3
2018-07-26T02:02:19.424Z,24.3
2018-07-26T02:03:09.513Z,24.4
2018-07-26T02:03:59.565Z,24.3
2018-07-26T02:04:49.640Z,24.4
2018-07-26T02:05:39.404Z,24.3
2018-07-26T02:06:28.934Z,24.4
2018-07-26T02:07:19.561Z,24.4
2018-07-26T02:08:09.921Z,24.3
2018-07-26T02:08:59.422Z,24.4
2018-07-26T02:09:49.750Z,24.4
2018-07-26T02:10:39.301Z,24.3
2018-07-26T02:11:29.614Z,24.4
2018-07-26T02:12:19.629Z,24.4
2018-07-26T02:13:10.282Z,24.4
2018-07-26T02:14:00.339Z,24.4
2018-07-26T02:14:50.161Z,24.4
2018-07-26T02:15:40.169Z,24.4
2018-07-26T02:16:29.951Z,24.4
2018-07-26T02:17:20.630Z,24.4
2018-07-26T02:18:10.663Z,24.4
2018-07-26T02:19:00.735Z,24.4
2018-07-26T02:19:50.792Z,24.4
2018-07-26T02:20:40.857Z,24.4
2018-07-26T02:21:30.355Z,24.4
2018-07-26T02:22:20.699Z,24.4
2018-07-26T02:23:10.491Z,24.4
2018-07-26T02:24:01.098Z,24.4
2018-07-26T02:24:51.243Z,24.4
2018-07-26T02:25:40.982Z,24.4
2018-07-26T02:26:31.308Z,24.4
2018-07-26T02:27:21.342Z,24.4
2018-07-26T02:28:10.938Z,24.4
2018-07-26T02:29:01.221Z,24.4
2018-07-26T02:29:50.534Z,24.4
2018-07-26T02:30:40.871Z,24.4
2018-07-26T02:31:30.936Z,24.4
2018-07-26T02:32:20.503Z,24.4
2018-07-26T02:33:10.858Z,24.4
2018-07-26T02:34:00.920Z,24.4
2018-07-26T02:34:51.016Z,24.4
2018-07-26T02:35:41.256Z,24.4
2018-07-26T02:36:31.579Z,24.4
2018-07-26T02:37:21.365Z,24.4
2018-07-26T02:38:11.753Z,24.4
2018-07-26T02:39:01.516Z,24.4
2018-07-26T02:39:51.274Z,24.4
2018-07-26T02:40:42.421Z,24.4
2018-07-26T02:41:32.466Z,24.4
2018-07-26T02:42:22.542Z,24.4
2018-07-26T02:43:12.584Z,24.4
2018-07-26T02:44:02.089Z,24.4
2018-07-26T02:44:52.444Z,24.4
2018-07-26T02:45:42.522Z,24.4
2018-07-26T02:46:32.817Z,24.4
2018-07-26T02:47:22.629Z,24.4
2018-07-26T02:48:12.140Z,24.4
2018-07-26T02:49:02.212Z,24.4
2018-07-26T02:49:52.668Z,24.4
2018-07-26T02:50:43.159Z,24.4
2018-07-26T02:51:32.928Z,24.4
2018-07-26T02:52:22.737Z,24.4
2018-07-26T02:53:13.093Z,24.4
2018-07-26T02:54:02.572Z,24.4
2018-07-26T02:54:53.478Z,24.4
2018-07-26T02:55:43.279Z,24.4
2018-07-26T02:56:33.056Z,24.4
2018-07-26T02:57:22.846Z,24.4
2018-07-26T02:58:12.899Z,24.4
2018-07-26T02:59:03.017Z,24.4
2018-07-26T02:59:53.875Z,24.4
2018-07-26T03:00:43.666Z,24.4
2018-07-26T03:01:33.137Z,24.5
2018-07-26T03:02:24.076Z,24.4
2018-07-26T03:03:14.154Z,24.5
2018-07-26T03:04:03.624Z,24.4
2018-07-26T03:04:53.939Z,24.5
2018-07-26T03:05:43.552Z,24.4
2018-07-26T03:06:34.081Z,24.5
2018-07-26T03:07:24.156Z,24.5
2018-07-26T03:08:13.961Z,24.4
2018-07-26T03:09:04.304Z,24.5
2018-07-26T03:09:54.656Z,24.5
2018-07-26T03:10:44.129Z,24.5
2018-07-26T03:11:34.484Z,24.5
2018-07-26T03:12:24.519Z,24.5
2018-07-26T03:13:14.389Z,24.5
2018-07-26T03:14:04.696Z,24.5
2018-07-26T03:14:55.009Z,24.5
2018-07-26T03:15:44.876Z,24.5
2018-07-26T03:16:35.168Z,24.5
2018-07-26T03:17:24.912Z,24.5
2018-07-26T03:18:15.281Z,24.5
2018-07-26T03:19:05.076Z,24.5
2018-07-26T03:19:55.127Z,24.5
2018-07-26T03:20:44.912Z,24.5
2018-07-26T03:21:35.593Z,24.5
2018-07-26T03:22:25.333Z,24.5
2018-07-26T03:23:15.390Z,24.5
2018-07-26T03:24:05.452Z,24.5
2018-07-26T03:24:55.246Z,24.5
2018-07-26T03:25:45.743Z,24.5
2018-07-26T03:26:35.630Z,24.5
2018-07-26T03:27:25.994Z,24.5
2018-07-26T03:28:15.463Z,24.5
2018-07-26T03:29:05.254Z,24.5
2018-07-26T03:29:56.153Z,24.5
2018-07-26T03:30:46.275Z,24.5
2018-07-26T03:31:35.725Z,24.5
2018-07-26T03:32:25.488Z,24.5
2018-07-26T03:33:15.868Z,24.5
2018-07-26T03:34:06.183Z,24.5
2018-07-26T03:34:56.545Z,24.5
2018-07-26T03:35:46.051Z,24.5
2018-07-26T03:36:36.705Z,24.5
2018-07-26T03:37:26.420Z,24.5
2018-07-26T03:38:16.538Z,24.5
2018-07-26T03:39:06.852Z,24.6
2018-07-26T03:39:56.913Z,24.5
2018-07-26T03:40:46.409Z,24.5
2018-07-26T03:41:37.102Z,24.5
2018-07-26T03:42:27.119Z,24.5
2018-07-26T03:43:17.163Z,24.5
2018-07-26T03:44:07.230Z,24.5
2018-07-26T03:44:57.021Z,24.5
2018-07-26T03:45:47.323Z,24.5
2018-07-26T03:46:37.413Z,24.5
2018-07-26T03:47:27.178Z,24.5
2018-07-26T03:48:16.978Z,24.5
2018-07-26T03:49:07.029Z,24.5
2018-07-26T03:49:56.810Z,24.5
2018-07-26T03:50:47.560Z,24.5
2018-07-26T03:51:37.548Z,24.5
2018-07-26T03:52:27.868Z,24.5
2018-07-26T03:53:17.103Z,24.5
2018-07-26T03:54:08.007Z,24.5
2018-07-26T03:54:58.053Z,24.5
2018-07-26T03:55:48.175Z,24.5
2018-07-26T03:56:37.907Z,24.5
2018-07-26T03:57:28.229Z,24.5
2018-07-26T03:58:18.028Z,24.5
2018-07-26T03:59:08.095Z,24.5
2018-07-26T03:59:57.923Z,24.5
2018-07-26T04:00:48.533Z,24.5
2018-07-26T04:01:38.564Z,24.5
2018-07-26T04:02:28.617Z,24.6
2018-07-26T04:03:19.242Z,24.5
2018-07-26T04:04:08.793Z,24.5
2018-07-26T04:04:58.586Z,24.5
2018-07-26T04:05:48.886Z,24.5
2018-07-26T04:06:38.949Z,24.5
2018-07-26T04:07:28.467Z,24.5
2018-07-26T04:08:18.810Z,24.6
2018-07-26T04:09:09.150Z,24.6
2018-07-26T04:09:58.954Z,24.6
2018-07-26T04:10:48.452Z,24.6
2018-07-26T04:11:39.310Z,24.6
2018-07-26T04:12:29.109Z,24.6
2018-07-26T04:13:19.185Z,24.6
2018-07-26T04:14:10.159Z,24.6
2018-07-26T04:14:59.016Z,24.6
2018-07-26T04:15:49.630Z,24.6
2018-07-26T04:16:39.439Z,24.6
2018-07-26T04:17:29.234Z,24.7
2018-07-26T04:18:19.557Z,24.8
2018-07-26T04:19:09.891Z,24.8
2018-07-26T04:20:00.360Z,24.8
2018-07-26T04:20:50.061Z,24.8
2018-07-26T04:21:39.261Z,24.8
2018-07-26T04:22:30.125Z,24.8
2018-07-26T04:23:20.211Z,24.8
2018-07-26T04:24:10.284Z,24.8
2018-07-26T04:25:00.036Z,24.8
2018-07-26T04:25:49.644Z,24.8
2018-07-26T04:26:39.713Z,24.8
2018-07-26T04:27:30.062Z,24.8
2018-07-26T04:28:19.846Z,24.8
2018-07-26T04:29:10.695Z,24.8
2018-07-26T04:30:00.157Z,24.8
2018-07-26T04:30:49.693Z,24.8
2018-07-26T04:31:40.375Z,24.8
2018-07-26T04:32:30.958Z,24.7
2018-07-26T04:33:21.027Z,24.7
2018-07-26T04:34:11.076Z,24.8
2018-07-26T04:35:01.119Z,24.8
2018-07-26T04:35:50.618Z,24.8
2018-07-26T04:36:40.232Z,24.8
2018-07-26T04:37:31.303Z,24.7
2018-07-26T04:38:21.360Z,24.7
2018-07-26T04:39:10.967Z,24.7
2018-07-26T04:40:01.227Z,24.8
2018-07-26T04:40:51.008Z,24.7
2018-07-26T04:41:41.617Z,24.8
2018-07-26T04:42:31.133Z,24.7
2018-07-26T04:43:21.508Z,24.7
2018-07-26T04:44:11.549Z,24.7
2018-07-26T04:45:01.874Z,24.7
2018-07-26T04:45:51.660Z,24.7
2018-07-26T04:46:41.439Z,24.7
2018-07-26T04:47:31.589Z,24.7
2018-07-26T04:48:22.140Z,24.7
2018-07-26T04:49:11.909Z,24.7
2018-07-26T04:50:02.248Z,24.7
2018-07-26T04:50:51.831Z,24.7
2018-07-26T04:51:42.387Z,24.7
2018-07-26T04:52:32.208Z,24.7
2018-07-26T04:53:22.241Z,24.7
2018-07-26T04:54:12.687Z,24.7
2018-07-26T04:55:02.648Z,24.7
2018-07-26T04:55:52.132Z,24.7
2018-07-26T04:56:42.495Z,24.7
2018-07-26T04:57:32.848Z,24.7
2018-07-26T04:58:22.332Z,24.7
2018-07-26T04:59:12.947Z,24.7
2018-07-26T05:00:02.478Z,24.7
2018-07-26T05:00:52.537Z,24.7
2018-07-26T05:01:42.847Z,24.7
2018-07-26T05:02:32.939Z,24.7
2018-07-26T05:03:22.730Z,24.7
2018-07-26T05:04:13.042Z,24.7
2018-07-26T05:05:03.443Z,24.7
2018-07-26T05:05:53.200Z,24.7
2018-07-26T05:06:43.328Z,24.7
2018-07-26T05:07:33.035Z,24.7
2018-07-26T05:08:23.117Z,24.7
2018-07-26T05:09:13.179Z,24.6
2018-07-26T05:10:03.252Z,24.7
2018-07-26T05:10:53.582Z,24.7
2018-07-26T05:11:43.706Z,24.7
2018-07-26T05:12:34.049Z,24.7
2018-07-26T05:13:23.817Z,24.7
2018-07-26T05:14:13.566Z,24.7
2018-07-26T05:15:18.078Z,24.6
2018-07-26T05:15:53.976Z,24.6
2018-07-26T05:16:44.033Z,24.7
2018-07-26T05:17:34.358Z,24.6
2018-07-26T05:18:24.134Z,24.6
2018-07-26T05:19:15.312Z,24.7
2018-07-26T05:20:04.306Z,24.6
2018-07-26T05:20:53.788Z,24.6
2018-07-26T05:21:44.668Z,24.6
2018-07-26T05:22:33.921Z,24.6
2018-07-26T05:23:24.780Z,24.6
2018-07-26T05:24:14.596Z,24.6
2018-07-26T05:25:04.920Z,24.6
2018-07-26T05:25:55.001Z,24.6
2018-07-26T05:26:44.517Z,24.6
2018-07-26T05:27:34.857Z,24.6
2018-07-26T05:28:24.905Z,24.6
2018-07-26T05:29:15.264Z,24.6
2018-07-26T05:30:05.328Z,24.6
2018-07-26T05:30:55.072Z,24.6
2018-07-26T05:31:45.221Z,24.7
2018-07-26T05:32:35.506Z,24.6
2018-07-26T05:33:25.313Z,24.6
2018-07-26T05:34:15.624Z,24.6
2018-07-26T05:35:05.738Z,24.6
2018-07-26T05:35:55.492Z,24.6
2018-07-26T05:36:45.571Z,24.6
2018-07-26T05:37:35.731Z,24.6
2018-07-26T05:38:25.981Z,24.6
2018-07-26T05:39:15.751Z,24.6
2018-07-26T05:40:06.103Z,24.6
2018-07-26T05:40:56.139Z,24.6
2018-07-26T05:41:46.250Z,24.6
2018-07-26T05:42:35.449Z,24.6
2018-07-26T05:43:26.089Z,24.6
2018-07-26T05:44:15.843Z,24.6
2018-07-26T05:45:06.006Z,24.6
2018-07-26T05:45:56.525Z,24.6
2018-07-26T05:46:46.088Z,24.6
2018-07-26T05:47:36.694Z,24.6
2018-07-26T05:48:26.164Z,24.6
2018-07-26T05:49:16.262Z,24.6
2018-07-26T05:50:06.857Z,24.6
2018-07-26T05:50:55.962Z,24.6
2018-07-26T05:51:46.464Z,24.6
2018-07-26T05:52:37.093Z,24.6
2018-07-26T05:53:27.363Z,24.6
2018-07-26T05:54:17.225Z,24.6
2018-07-26T05:55:07.264Z,24.6
2018-07-26T05:55:56.565Z,24.6
2018-07-26T05:56:46.828Z,24.6
2018-07-26T05:57:36.687Z,24.7
2018-07-26T05:58:27.202Z,24.7
2018-07-26T05:59:17.060Z,24.8
2018-07-26T06:00:07.932Z,24.8
2018-07-26T06:00:57.665Z,24.8
2018-07-26T06:01:47.434Z,24.8
2018-07-26T06:02:37.797Z,24.8
2018-07-26T06:03:27.590Z,24.8
2018-07-26T06:04:17.972Z,24.8
2018-07-26T06:05:07.716Z,24.8
2018-07-26T06:05:57.784Z,24.8
2018-07-26T06:06:47.852Z,24.8
2018-07-26T06:07:38.189Z,24.8
2018-07-26T06:08:28.012Z,24.8
2018-07-26T06:09:18.326Z,24.8
2018-07-26T06:10:08.376Z,24.8
2018-07-26T06:10:58.428Z,24.8
2018-07-26T06:11:48.213Z,24.8
2018-07-26T06:12:38.281Z,24.8
2018-07-26T06:13:28.616Z,24.8
2018-07-26T06:14:18.685Z,24.8
2018-07-26T06:15:08.758Z,24.8
2018-07-26T06:15:58.833Z,24.7
2018-07-26T06:16:48.913Z,24.8
2018-07-26T06:17:38.965Z,24.8
2018-07-26T06:18:28.768Z,24.7
2018-07-26T06:19:18.871Z,24.7
2018-07-26T06:20:08.889Z,24.7
2018-07-26T06:20:59.253Z,24.8
2018-07-26T06:21:49.031Z,24.7
2018-07-26T06:22:39.099Z,24.7
2018-07-26T06:23:29.448Z,24.8
2018-07-26T06:24:19.552Z,24.7
2018-07-26T06:25:09.571Z,24.7
2018-07-26T06:25:58.831Z,24.7
2018-07-26T06:26:49.382Z,24.7
2018-07-26T06:27:39.443Z,24.7
2018-07-26T06:28:29.513Z,24.7
2018-07-26T06:29:19.851Z,24.7
2018-07-26T06:30:09.945Z,33.3
2018-07-26T06:30:59.969Z,48.8
2018-07-26T06:31:49.836Z,52.7
2018-07-26T06:32:40.089Z,52.8
2018-07-26T06:33:30.660Z,52.4
2018-07-26T06:34:19.991Z,50.8
2018-07-26T06:35:10.043Z,49.3
2018-07-26T06:36:00.381Z,48.4
2018-07-26T06:36:50.173Z,47.8
2018-07-26T06:37:40.527Z,47.3
2018-07-26T06:38:30.001Z,46.7
2018-07-26T06:39:20.376Z,46.2
2018-07-26T06:40:10.158Z,45.7
2018-07-26T06:41:00.764Z,45.2
2018-07-26T06:41:50.840Z,44.8
2018-07-26T06:42:40.633Z,44.3
2018-07-26T06:43:30.974Z,43.8
2018-07-26T06:44:20.448Z,43.4
2018-07-26T06:45:10.617Z,42.9
2018-07-26T06:46:00.896Z,42.6
2018-07-26T06:46:50.933Z,42.1
2018-07-26T06:47:41.280Z,41.8
2018-07-26T06:48:31.110Z,41.4
2018-07-26T06:49:21.108Z,41
2018-07-26T06:50:11.198Z,40.6
2018-07-26T06:51:01.079Z,40.3
2018-07-26T06:51:51.072Z,39.9
2018-07-26T06:52:40.547Z,40.1
2018-07-26T06:53:31.707Z,43.4
2018-07-26T06:54:21.782Z,51.1
2018-07-26T06:55:11.557Z,56.8
2018-07-26T06:56:01.351Z,56
2018-07-26T06:56:51.704Z,53.5
2018-07-26T06:58:32.090Z,51.1
2018-07-26T06:59:21.612Z,50.5
2018-07-26T07:00:12.233Z,50
2018-07-26T07:01:01.552Z,49.4
2018-07-26T07:01:52.349Z,48.8
2018-07-26T07:02:42.438Z,48.3
2018-07-26T07:03:32.490Z,47.7
2018-07-26T07:04:22.544Z,47.2
2018-07-26T07:05:12.634Z,46.7
2018-07-26T07:06:02.668Z,46.2
2018-07-26T07:06:52.468Z,46.3
2018-07-26T07:07:42.512Z,46.5
2018-07-26T07:08:32.852Z,54.6
2018-07-26T07:09:22.662Z,58.6
2018-07-26T07:10:12.679Z,59.1
2018-07-26T07:11:02.586Z,58.4
2018-07-26T07:11:52.585Z,56.3
2018-07-26T07:12:42.730Z,53.9
2018-07-26T07:13:33.017Z,52.8
2018-07-26T07:14:23.111Z,53.6
2018-07-26T07:15:12.838Z,55.2
2018-07-26T07:16:03.473Z,56.4
2018-07-26T07:16:53.512Z,57.1
2018-07-26T07:17:43.566Z,57.1
2018-07-26T07:18:32.880Z,56.6
2018-07-26T07:19:23.423Z,56.1
2018-07-26T07:20:13.801Z,55.9
2018-07-26T07:21:03.616Z,56.3
2018-07-26T07:21:53.883Z,57
2018-07-26T07:22:43.983Z,57.6
2018-07-26T07:23:33.217Z,58.1
2018-07-26T07:24:23.823Z,58.3
2018-07-26T07:25:14.149Z,58.3
2018-07-26T07:26:04.322Z,58.3
2018-07-26T07:26:54.285Z,58.4
2018-07-26T07:27:44.033Z,58.7
2018-07-26T07:28:33.934Z,59
2018-07-26T07:29:24.461Z,59.4
2018-07-26T07:30:14.284Z,59.6
2018-07-26T07:31:04.329Z,59.6
2018-07-26T07:31:54.713Z,59.2
2018-07-26T07:32:44.172Z,59.1
2018-07-26T07:33:34.846Z,59.4
2018-07-26T07:34:24.874Z,60
2018-07-26T07:35:14.633Z,60.4
2018-07-26T07:36:03.676Z,60.6
2018-07-26T07:36:54.570Z,60.1
2018-07-26T07:37:45.136Z,59
2018-07-26T07:38:34.911Z,57.8
2018-07-26T07:39:25.000Z,56.9
2018-07-26T07:40:15.358Z,56.9
2018-07-26T07:41:55.554Z,58.9
2018-07-26T07:42:44.667Z,59.9
2018-07-26T07:43:34.727Z,60.4
2018-07-26T07:44:25.623Z,60.5
2018-07-26T07:45:15.414Z,60.4
2018-07-26T07:46:05.531Z,60.3
2018-07-26T07:46:55.881Z,60.6
2018-07-26T07:47:46.464Z,61
2018-07-26T07:48:35.688Z,61.6
2018-07-26T07:49:26.064Z,62
2018-07-26T07:50:16.088Z,62.3
2018-07-26T07:51:06.172Z,62.5
2018-07-26T07:51:55.939Z,62.6
2018-07-26T07:52:46.418Z,62.7
2018-07-26T07:53:36.357Z,62.9
2018-07-26T07:54:26.435Z,63.3
2018-07-26T07:55:16.255Z,63.7
2018-07-26T07:56:06.571Z,64.1
2018-07-26T07:56:56.645Z,64.4
2018-07-26T07:57:46.434Z,64.8
2018-07-26T07:58:36.451Z,64.8
2018-07-26T07:59:26.758Z,64.6
2018-07-26T08:00:16.059Z,64.4
2018-07-26T08:01:06.921Z,64.4
2018-07-26T08:01:55.876Z,64.6
2018-07-26T08:02:47.101Z,65.2
2018-07-26T08:03:37.104Z,65.8
2018-07-26T08:04:26.624Z,66.1
2018-07-26T08:05:17.742Z,66.4
2018-07-26T08:06:07.083Z,66.4
2018-07-26T08:06:57.403Z,66.5
2018-07-26T08:07:47.436Z,66.7
2018-07-26T08:08:37.241Z,67
2018-07-26T08:09:27.308Z,67.3
2018-07-26T08:10:16.819Z,67.4
2018-07-26T08:11:07.195Z,67.3
2018-07-26T08:11:57.815Z,67.1
2018-07-26T08:12:47.389Z,66.8
2018-07-26T08:13:37.648Z,66.8
2018-07-26T08:14:27.711Z,66.9
2018-07-26T08:15:17.449Z,67.2
2018-07-26T08:16:08.085Z,67.4
2018-07-26T08:16:57.980Z,67.5
2018-07-26T08:17:48.265Z,67.1
2018-07-26T08:18:38.281Z,66.4
2018-07-26T08:19:28.078Z,65.6
2018-07-26T08:20:18.405Z,64.9
2018-07-26T08:21:08.232Z,64.6
2018-07-26T08:21:58.535Z,64.6
2018-07-26T08:22:48.338Z,65.1
2018-07-26T08:23:38.385Z,65.8
2018-07-26T08:24:28.490Z,66.3
2018-07-26T08:25:17.972Z,66.7
2018-07-26T08:26:08.891Z,67.1
2018-07-26T08:26:58.390Z,67.2
2018-07-26T08:27:48.720Z,67.3
2018-07-26T08:28:39.069Z,67.4
2018-07-26T08:29:28.946Z,66.8
2018-07-26T08:30:18.924Z,66.4
2018-07-26T08:31:08.980Z,66.7
2018-07-26T08:31:59.054Z,66.9
2018-07-26T08:32:49.094Z,67.2
2018-07-26T08:33:39.451Z,67.7
2018-07-26T08:34:29.039Z,68.1
2018-07-26T08:35:19.314Z,68.3
2018-07-26T08:36:09.652Z,68.4
2018-07-26T08:36:59.173Z,68.4
2018-07-26T08:37:49.770Z,68.5
2018-07-26T08:38:39.828Z,68.6
2018-07-26T08:39:29.903Z,68.8
2018-07-26T08:40:19.975Z,69
2018-07-26T08:41:10.798Z,69.2
2018-07-26T08:41:59.053Z,69.3
2018-07-26T08:42:49.585Z,69.3
2018-07-26T08:43:40.213Z,69.4
2018-07-26T08:44:30.266Z,69.5
2018-07-26T08:45:20.363Z,69.6
2018-07-26T08:46:10.405Z,69.8
2018-07-26T08:47:00.451Z,69.9
2018-07-26T08:47:50.523Z,70
2018-07-26T08:48:40.605Z,70.2
2018-07-26T08:49:30.666Z,70.3
2018-07-26T08:50:20.444Z,70.4
2018-07-26T08:51:10.803Z,70.5
2018-07-26T08:52:00.584Z,70.7
2018-07-26T08:52:50.915Z,70.8
2018-07-26T08:53:40.706Z,70.9
2018-07-26T08:54:30.784Z,70.9
2018-07-26T08:55:20.880Z,71.1
2018-07-26T08:56:10.923Z,71.1
2018-07-26T08:57:00.991Z,71
2018-07-26T08:57:51.049Z,70
2018-07-26T08:58:41.389Z,68.5
2018-07-26T08:59:31.436Z,67.3
2018-07-26T09:00:20.938Z,67.1
2018-07-26T09:01:12.218Z,67.3
2018-07-26T09:02:01.113Z,66.9
2018-07-26T09:02:51.077Z,66.6
2018-07-26T09:03:41.790Z,67
2018-07-26T09:04:31.860Z,67.6
2018-07-26T09:05:21.633Z,67.9
2018-07-26T09:06:11.705Z,68.4
2018-07-26T09:07:01.880Z,68.4
2018-07-26T09:07:52.096Z,67.8
2018-07-26T09:08:41.673Z,66.9
2018-07-26T09:09:32.240Z,66.4
2018-07-26T09:10:22.295Z,65.8
2018-07-26T09:11:12.140Z,64.9
2018-07-26T09:12:01.884Z,64.1
2018-07-26T09:12:52.501Z,63.4
2018-07-26T09:13:42.758Z,62.6
2018-07-26T09:14:32.628Z,62.1
2018-07-26T09:15:22.402Z,61.6
2018-07-26T09:16:12.730Z,61.2
2018-07-26T09:17:02.554Z,60.7
2018-07-26T09:17:52.194Z,60.1
2018-07-26T09:18:42.958Z,59.6
2018-07-26T09:19:32.860Z,59
2018-07-26T09:20:23.038Z,58.5
2018-07-26T09:21:12.645Z,58.1
2018-07-26T09:22:02.933Z,57.5
2018-07-26T09:22:53.283Z,56.8
2018-07-26T09:23:43.318Z,56.1
2018-07-26T09:24:34.022Z,55.8
2018-07-26T09:25:23.177Z,55.8
2018-07-26T09:26:13.811Z,57.1
2018-07-26T09:27:03.563Z,64.1
2018-07-26T09:27:53.635Z,67.1
2018-07-26T09:28:43.697Z,67.6
2018-07-26T09:29:33.494Z,66.8
2018-07-26T09:30:23.830Z,65.3
2018-07-26T09:31:13.910Z,64.3
2018-07-26T09:32:03.715Z,64.4
2018-07-26T09:32:54.266Z,65.8
2018-07-26T09:33:44.120Z,67.4
2018-07-26T09:34:34.191Z,68.7
2018-07-26T09:35:24.604Z,69.3
2018-07-26T09:36:14.310Z,69.3
2018-07-26T09:37:04.354Z,69.1
2018-07-26T09:37:54.145Z,68.9
2018-07-26T09:38:44.467Z,69.3
2018-07-26T09:39:34.532Z,69.8
2018-07-26T09:40:24.382Z,70.4
2018-07-26T09:41:15.317Z,70.9
2018-07-26T09:42:04.474Z,71.3
2018-07-26T09:42:54.273Z,71.4
2018-07-26T09:43:44.589Z,71.5
2018-07-26T09:44:34.664Z,71.7
2018-07-26T09:45:25.044Z,71.9
2018-07-26T09:46:14.788Z,72.2
2018-07-26T09:47:04.871Z,72.5
2018-07-26T09:47:54.651Z,72.8
2018-07-26T09:48:45.299Z,72.9
2018-07-26T09:49:34.541Z,73.1
2018-07-26T09:50:25.413Z,73.2
2018-07-26T09:51:15.186Z,73.3
2018-07-26T09:52:05.534Z,73.5
2018-07-26T09:52:55.319Z,73.7
2018-07-26T09:53:45.648Z,73.9
2018-07-26T09:54:35.689Z,74.1
2018-07-26T09:55:25.507Z,74.2
2018-07-26T09:56:15.843Z,74.4
2018-07-26T09:57:05.122Z,74.5
2018-07-26T09:57:55.978Z,74.6
2018-07-26T09:58:45.231Z,74.8
2018-07-26T09:59:36.201Z,74.9
2018-07-26T10:00:25.976Z,75
2018-07-26T10:01:16.027Z,75.1
2018-07-26T10:02:06.291Z,75.3
2018-07-26T10:02:56.106Z,75.3
2018-07-26T10:03:46.423Z,75.4
2018-07-26T10:04:35.928Z,75.6
2018-07-26T10:05:26.587Z,75.6
2018-07-26T10:06:16.330Z,75.7
2018-07-26T10:07:06.686Z,75.8
2018-07-26T10:07:55.920Z,75.8
2018-07-26T10:08:46.546Z,75.8
2018-07-26T10:09:36.914Z,75.8
2018-07-26T10:10:26.422Z,75.9
2018-07-26T10:11:17.010Z,76.1
2018-07-26T10:12:06.513Z,76.2
2018-07-26T10:12:57.172Z,76.4
2018-07-26T10:13:47.201Z,76.5
2018-07-26T10:14:37.015Z,76.6
2018-07-26T10:15:27.086Z,76.7
2018-07-26T10:16:17.402Z,76.8
2018-07-26T10:17:07.492Z,76.8
2018-07-26T10:17:57.542Z,76.9
2018-07-26T10:18:47.620Z,77.1
2018-07-26T10:19:37.669Z,77.2
2018-07-26T10:20:26.886Z,77.4
2018-07-26T10:21:17.848Z,77.5
2018-07-26T10:22:07.884Z,77.3
2018-07-26T10:22:57.376Z,75.9
2018-07-26T10:23:48.054Z,74.2
2018-07-26T10:24:38.083Z,73.1
2018-07-26T10:25:28.134Z,72.7
2018-07-26T10:26:17.628Z,72.6
2018-07-26T10:27:08.258Z,72.4
2018-07-26T10:27:58.267Z,71.6
2018-07-26T10:28:47.579Z,70.7
2018-07-26T10:29:38.154Z,70.1
2018-07-26T10:30:28.510Z,70.4
2018-07-26T10:31:18.082Z,71
2018-07-26T10:32:08.636Z,71.9
2018-07-26T10:32:58.733Z,72.9
2018-07-26T10:33:48.496Z,73.4
2018-07-26T10:34:38.808Z,73.6
2018-07-26T10:35:28.885Z,73.6
2018-07-26T10:36:18.572Z,73.4
2018-07-26T10:37:09.026Z,73.6
2018-07-26T10:37:58.806Z,73.8
2018-07-26T10:38:49.011Z,74.1
2018-07-26T10:39:38.923Z,74.4
2018-07-26T10:40:29.284Z,74.6
2018-07-26T10:41:18.867Z,74.5
2018-07-26T10:42:09.430Z,73.8
2018-07-26T10:42:59.486Z,73.2
2018-07-26T10:43:49.244Z,72.9
2018-07-26T10:44:40.343Z,73
2018-07-26T10:45:29.702Z,73.3
2018-07-26T10:46:19.451Z,73.7
2018-07-26T10:47:09.235Z,74
2018-07-26T10:47:59.626Z,74.2
2018-07-26T10:48:49.959Z,74.1
2018-07-26T10:49:39.795Z,72.9
2018-07-26T10:50:29.799Z,71.1
2018-07-26T10:51:19.843Z,69.5
2018-07-26T10:52:10.188Z,68.4
2018-07-26T10:53:00.006Z,67.8
2018-07-26T10:53:49.760Z,67.4
2018-07-26T10:54:40.410Z,67.2
2018-07-26T10:55:30.198Z,66.8
2018-07-26T10:56:20.253Z,66.2
2018-07-26T10:57:10.587Z,65.6
2018-07-26T10:58:00.101Z,65.5
2018-07-26T10:58:50.162Z,66.3
2018-07-26T10:59:40.515Z,66.6
2018-07-26T11:00:30.598Z,66.4
2018-07-26T11:01:20.654Z,66.1
2018-07-26T11:02:10.967Z,65.3
2018-07-26T11:03:01.045Z,64.4
2018-07-26T11:03:50.951Z,63.6
2018-07-26T11:04:41.159Z,62.8
2018-07-26T11:05:30.660Z,61.8
2018-07-26T11:06:20.748Z,60.8
2018-07-26T11:07:11.372Z,60.1
2018-07-26T11:08:01.398Z,59.6
2018-07-26T11:08:50.933Z,59.4